KBKL/BKL METAR and TAF weather

Enter ICAO airport designator
Station Type Date Time Source
KBKL METAR 2022/12/10 00:53 UTC NOAA

KBKL 100053Z 05011KT 10SM SCT120 04/M02 A3022 RMK AO2 SLP237 T00391017


Station Type Date Time Source
KBKL Decoded METAR 2022/12/10 00:53 UTC NOAA

CLEVELAND BURKE LAKEFRONT, OH, United States (KBKL) 41-32N 81-40W 184M
Dec 09, 2022 - 07:53 PM EST / 2022.12.10 0053 UTC
Wind: from the NE (050 degrees) at 13 MPH (11 KT):0
Visibility: 10 mile(s):0
Sky conditions: partly cloudy
Temperature: 39.0 F (3.9 C)
Dew Point: 28.9 F (-1.7 C)
Relative Humidity: 66%
Pressure (altimeter): 30.22 in. Hg (1023 hPa)
ob: KBKL 100053Z 05011KT 10SM SCT120 04/M02 A3022 RMK AO2 SLP237 T00391017
cycle: 1

Station Type Date Time Source
KBKL TAF UTC NOAA

Error!

Example: see airport list